sensor_id;sensor_type;location;lat;lon;timestamp;pressure;altitude;pressure_sealevel;temperature;humidity
6853;BME280;3465;42.144;24.722;2023-05-25T00:02:05;147146.25;;;16.91;100.00
6853;BME280;3465;42.144;24.722;2023-05-25T00:04:30;147148.81;;;16.92;100.00
6853;BME280;3465;42.144;24.722;2023-05-25T00:06:58;147127.38;;;16.83;100.00
6853;BME280;3465;42.144;24.722;2023-05-25T00:09:24;147107.25;;;16.75;100.00
6853;BME280;3465;42.144;24.722;2023-05-25T00:11:49;147092.16;;;16.69;100.00
6853;BME280;3465;42.144;24.722;2023-05-25T00:14:16;147065.69;;;16.59;100.00
6853;BME280;3465;42.144;24.722;2023-05-25T00:16:41;147063.19;;;16.58;100.00
6853;BME280;3465;42.144;24.722;2023-05-25T00:19:08;147060.69;;;16.57;100.00
6853;BME280;3465;42.144;24.722;2023-05-25T00:21:34;147058.13;;;16.56;100.00
6853;BME280;3465;42.144;24.722;2023-05-25T00:24:03;147060.69;;;16.57;100.00
6853;BME280;3465;42.144;24.722;2023-05-25T00:26:29;147045.53;;;16.51;100.00
6853;BME280;3465;42.144;24.722;2023-05-25T00:28:54;147069.47;;;16.60;100.00
6853;BME280;3465;42.144;24.722;2023-05-25T00:31:19;147038.00;;;16.48;100.00
6853;BME280;3465;42.144;24.722;2023-05-25T00:33:45;147046.81;;;16.51;100.00
6853;BME280;3465;42.144;24.722;2023-05-25T00:36:11;147035.50;;;16.47;100.00
6853;BME280;3465;42.144;24.722;2023-05-25T00:38:36;147021.59;;;16.41;100.00
6853;BME280;3465;42.144;24.722;2023-05-25T00:41:02;147015.31;;;16.39;100.00
6853;BME280;3465;42.144;24.722;2023-05-25T00:43:27;147011.53;;;16.37;100.00
6853;BME280;3465;42.144;24.722;2023-05-25T00:45:53;146997.69;;;16.32;100.00
6853;BME280;3465;42.144;24.722;2023-05-25T00:48:18;146996.44;;;16.31;100.00
6853;BME280;3465;42.144;24.722;2023-05-25T00:50:44;146997.69;;;16.32;100.00
6853;BME280;3465;42.144;24.722;2023-05-25T00:53:11;147002.72;;;16.34;100.00
6853;BME280;3465;42.144;24.722;2023-05-25T00:55:50;147002.72;;;16.34;100.00
6853;BME280;3465;42.144;24.722;2023-05-25T00:58:20;146992.69;;;16.30;100.00
6853;BME280;3465;42.144;24.722;2023-05-25T01:00:46;146985.09;;;16.27;100.00
6853;BME280;3465;42.144;24.722;2023-05-25T01:03:14;146970.00;;;16.21;100.00
6853;BME280;3465;42.144;24.722;2023-05-25T01:05:47;146959.97;;;16.17;100.00
6853;BME280;3465;42.144;24.722;2023-05-25T01:08:15;146949.88;;;16.13;100.00
6853;BME280;3465;42.144;24.722;2023-05-25T01:10:42;146944.81;;;16.11;100.00
6853;BME280;3465;42.144;24.722;2023-05-25T01:13:09;146936.06;;;16.07;100.00
6853;BME280;3465;42.144;24.722;2023-05-25T01:15:37;146869.34;;;15.81;100.00
6853;BME280;3465;42.144;24.722;2023-05-25T01:18:03;146892.03;;;15.90;100.00
6853;BME280;3465;42.144;24.722;2023-05-25T01:20:28;146902.06;;;15.94;100.00
6853;BME280;3465;42.144;24.722;2023-05-25T01:28:10;146878.16;;;15.84;100.00
6853;BME280;3465;42.144;24.722;2023-05-25T01:30:39;146851.78;;;15.73;100.00
6853;BME280;3465;42.144;24.722;2023-05-25T01:33:06;146868.06;;;15.80;100.00
6853;BME280;3465;42.144;24.722;2023-05-25T01:35:35;146849.22;;;15.72;100.00
6853;BME280;3465;42.144;24.722;2023-05-25T01:38:01;146851.78;;;15.73;100.00
6853;BME280;3465;42.144;24.722;2023-05-25T01:40:26;146850.50;;;15.73;100.00
6853;BME280;3465;42.144;24.722;2023-05-25T01:42:52;146810.25;;;15.57;100.00
6853;BME280;3465;42.144;24.722;2023-05-25T01:45:17;146836.63;;;15.67;100.00
6853;BME280;3465;42.144;24.722;2023-05-25T01:50:13;146849.22;;;15.72;100.00
6853;BME280;3465;42.144;24.722;2023-05-25T01:53:03;146824.06;;;15.62;100.00
6853;BME280;3465;42.144;24.722;2023-05-25T01:55:36;146793.91;;;15.50;100.00
6853;BME280;3465;42.144;24.722;2023-05-25T01:58:04;146771.28;;;15.41;100.00
6853;BME280;3465;42.144;24.722;2023-05-25T02:00:31;146790.13;;;15.49;100.00
6853;BME280;3465;42.144;24.722;2023-05-25T02:02:58;146785.09;;;15.47;100.00
6853;BME280;3465;42.144;24.722;2023-05-25T02:05:25;146793.91;;;15.50;100.00
6853;BME280;3465;42.144;24.722;2023-05-25T02:07:52;146791.41;;;15.49;100.00
6853;BME280;3465;42.144;24.722;2023-05-25T02:10:17;146821.56;;;15.61;100.00
6853;BME280;3465;42.144;24.722;2023-05-25T02:12:43;146816.50;;;15.59;100.00
6853;BME280;3465;42.144;24.722;2023-05-25T02:15:09;146797.66;;;15.52;100.00
6853;BME280;3465;42.144;24.722;2023-05-25T02:17:35;146786.34;;;15.47;100.00
6853;BME280;3465;42.144;24.722;2023-05-25T02:20:02;146786.34;;;15.47;100.00
6853;BME280;3465;42.144;24.722;2023-05-25T02:22:28;146786.34;;;15.47;100.00
6853;BME280;3465;42.144;24.722;2023-05-25T02:24:53;146737.25;;;15.28;100.00
6853;BME280;3465;42.144;24.722;2023-05-25T02:27:19;146742.28;;;15.30;100.00
6853;BME280;3465;42.144;24.722;2023-05-25T02:29:44;146763.69;;;15.38;100.00
6853;BME280;3465;42.144;24.722;2023-05-25T02:32:10;146741.03;;;15.29;100.00
6853;BME280;3465;42.144;24.722;2023-05-25T02:34:35;146738.53;;;15.28;100.00
6853;BME280;3465;42.144;24.722;2023-05-25T02:37:01;146735.97;;;15.27;100.00
6853;BME280;3465;42.144;24.722;2023-05-25T02:39:26;146731.00;;;15.25;100.00
6853;BME280;3465;42.144;24.722;2023-05-25T02:41:52;146735.97;;;15.27;100.00
6853;BME280;3465;42.144;24.722;2023-05-25T02:44:18;146728.44;;;15.24;100.00
6853;BME280;3465;42.144;24.722;2023-05-25T02:46:44;146708.31;;;15.16;100.00
6853;BME280;3465;42.144;24.722;2023-05-25T02:49:09;146713.38;;;15.18;100.00
6853;BME280;3465;42.144;24.722;2023-05-25T02:51:35;146722.19;;;15.22;100.00
6853;BME280;3465;42.144;24.722;2023-05-25T02:54:01;146703.28;;;15.14;100.00
6853;BME280;3465;42.144;24.722;2023-05-25T02:56:26;146715.88;;;15.19;100.00
6853;BME280;3465;42.144;24.722;2023-05-25T02:58:52;146693.25;;;15.10;100.00
6853;BME280;3465;42.144;24.722;2023-05-25T03:01:17;146680.69;;;15.05;100.00
6853;BME280;3465;42.144;24.722;2023-05-25T03:03:46;146673.13;;;15.02;100.00
6853;BME280;3465;42.144;24.722;2023-05-25T03:06:16;146658.06;;;14.96;100.00
6853;BME280;3465;42.144;24.722;2023-05-25T03:08:42;146664.34;;;14.99;100.00
6853;BME280;3465;42.144;24.722;2023-05-25T03:11:07;146660.56;;;14.97;100.00
6853;BME280;3465;42.144;24.722;2023-05-25T03:13:33;146655.53;;;14.95;100.00
6853;BME280;3465;42.144;24.722;2023-05-25T03:15:58;146676.91;;;15.04;100.00
6853;BME280;3465;42.144;24.722;2023-05-25T03:18:23;146679.41;;;15.05;100.00
6853;BME280;3465;42.144;24.722;2023-05-25T03:20:49;146675.63;;;15.03;100.00
6853;BME280;3465;42.144;24.722;2023-05-25T03:23:14;146640.44;;;14.89;100.00
6853;BME280;3465;42.144;24.722;2023-05-25T03:25:40;146659.28;;;14.97;100.00
6853;BME280;3465;42.144;24.722;2023-05-25T03:28:05;146678.19;;;15.04;100.00
6853;BME280;3465;42.144;24.722;2023-05-25T03:30:31;146684.44;;;15.07;100.00
6853;BME280;3465;42.144;24.722;2023-05-25T03:32:56;146699.53;;;15.13;100.00
6853;BME280;3465;42.144;24.722;2023-05-25T03:35:22;146668.09;;;15.00;100.00
6853;BME280;3465;42.144;24.722;2023-05-25T03:37:47;146705.84;;;15.15;100.00
6853;BME280;3465;42.144;24.722;2023-05-25T03:40:13;146675.63;;;15.03;100.00
6853;BME280;3465;42.144;24.722;2023-05-25T03:42:38;146707.06;;;15.16;100.00
6853;BME280;3465;42.144;24.722;2023-05-25T03:45:04;146695.75;;;15.11;100.00
6853;BME280;3465;42.144;24.722;2023-05-25T03:47:30;146663.06;;;14.98;100.00
6853;BME280;3465;42.144;24.722;2023-05-25T03:49:56;146731.00;;;15.25;100.00
6853;BME280;3465;42.144;24.722;2023-05-25T03:52:21;146738.53;;;15.28;100.00
6853;BME280;3465;42.144;24.722;2023-05-25T03:54:47;146748.56;;;15.32;100.00
6853;BME280;3465;42.144;24.722;2023-05-25T03:57:13;146753.59;;;15.34;100.00
6853;BME280;3465;42.144;24.722;2023-05-25T03:59:38;146777.53;;;15.44;100.00
6853;BME280;3465;42.144;24.722;2023-05-25T04:02:04;146791.41;;;15.49;100.00
6853;BME280;3465;42.144;24.722;2023-05-25T04:04:29;146811.53;;;15.57;100.00
6853;BME280;3465;42.144;24.722;2023-05-25T04:06:54;146824.06;;;15.62;100.00
6853;BME280;3465;42.144;24.722;2023-05-25T04:09:20;146844.19;;;15.70;100.00
6853;BME280;3465;42.144;24.722;2023-05-25T04:11:45;146861.81;;;15.77;100.00
6853;BME280;3465;42.144;24.722;2023-05-25T04:14:11;146903.34;;;15.94;100.00
6853;BME280;3465;42.144;24.722;2023-05-25T04:16:36;146936.06;;;16.07;100.00
6853;BME280;3465;42.144;24.722;2023-05-25T04:19:05;146934.78;;;16.07;100.00
6853;BME280;3465;42.144;24.722;2023-05-25T04:21:30;146959.97;;;16.17;100.00
6853;BME280;3465;42.144;24.722;2023-05-25T04:23:56;146982.59;;;16.26;100.00
6853;BME280;3465;42.144;24.722;2023-05-25T04:26:21;146962.47;;;16.18;100.00
6853;BME280;3465;42.144;24.722;2023-05-25T04:28:47;147005.22;;;16.35;100.00
6853;BME280;3465;42.144;24.722;2023-05-25T04:31:13;147025.34;;;16.43;100.00
6853;BME280;3465;42.144;24.722;2023-05-25T04:33:38;147036.78;;;16.47;100.00
6853;BME280;3465;42.144;24.722;2023-05-25T04:36:05;147056.91;;;16.55;100.00
6853;BME280;3465;42.144;24.722;2023-05-25T04:38:30;147065.69;;;16.59;100.00
6853;BME280;3465;42.144;24.722;2023-05-25T04:40:57;147084.59;;;16.66;100.00
6853;BME280;3465;42.144;24.722;2023-05-25T04:43:23;147114.78;;;16.78;100.00
6853;BME280;3465;42.144;24.722;2023-05-25T04:45:51;147171.44;;;17.01;100.00
6853;BME280;3465;42.144;24.722;2023-05-25T04:48:16;147165.19;;;16.98;100.00
6853;BME280;3465;42.144;24.722;2023-05-25T04:50:42;147186.56;;;17.07;100.00
6853;BME280;3465;42.144;24.722;2023-05-25T04:53:07;147215.53;;;17.18;100.00
6853;BME280;3465;42.144;24.722;2023-05-25T04:55:33;147248.28;;;17.32;100.00
6853;BME280;3465;42.144;24.722;2023-05-25T04:57:59;147279.75;;;17.44;100.00
6853;BME280;3465;42.144;24.722;2023-05-25T05:00:25;147297.47;;;17.51;100.00
6853;BME280;3465;42.144;24.722;2023-05-25T05:02:50;147347.81;;;17.71;100.00
6853;BME280;3465;42.144;24.722;2023-05-25T05:05:16;147374.31;;;17.82;100.00
6853;BME280;3465;42.144;24.722;2023-05-25T05:07:42;147395.75;;;17.90;100.00
6853;BME280;3465;42.144;24.722;2023-05-25T05:10:08;147422.19;;;18.01;100.00
6853;BME280;3465;42.144;24.722;2023-05-25T05:12:33;147453.69;;;18.13;100.00
6853;BME280;3465;42.144;24.722;2023-05-25T05:14:59;147475.13;;;18.22;100.00
6853;BME280;3465;42.144;24.722;2023-05-25T05:17:24;147483.97;;;18.25;100.00
6853;BME280;3465;42.144;24.722;2023-05-25T05:19:52;147519.28;;;18.39;100.00
6853;BME280;3465;42.144;24.722;2023-05-25T05:22:17;147565.91;;;18.58;100.00
6853;BME280;3465;42.144;24.722;2023-05-25T05:24:43;147611.31;;;18.76;100.00
6853;BME280;3465;42.144;24.722;2023-05-25T05:27:08;147623.94;;;18.81;100.00
6853;BME280;3465;42.144;24.722;2023-05-25T05:29:34;147649.16;;;18.91;100.00
6853;BME280;3465;42.144;24.722;2023-05-25T05:32:01;147640.31;;;18.88;100.00
6853;BME280;3465;42.144;24.722;2023-05-25T05:34:27;147688.25;;;19.07;100.00
6853;BME280;3465;42.144;24.722;2023-05-25T05:36:52;147712.22;;;19.16;100.00
6853;BME280;3465;42.144;24.722;2023-05-25T05:39:18;147724.81;;;19.21;100.00
6853;BME280;3465;42.144;24.722;2023-05-25T05:41:43;147739.97;;;19.27;100.00
6853;BME280;3465;42.144;24.722;2023-05-25T05:44:10;147731.13;;;19.24;100.00
6853;BME280;3465;42.144;24.722;2023-05-25T05:46:36;147800.56;;;19.51;100.00
6853;BME280;3465;42.144;24.722;2023-05-25T05:49:02;147785.44;;;19.45;100.00
6853;BME280;3465;42.144;24.722;2023-05-25T05:51:28;147846.00;;;19.69;100.00
6853;BME280;3465;42.144;24.722;2023-05-25T05:53:53;147844.72;;;19.69;100.00
6853;BME280;3465;42.144;24.722;2023-05-25T05:56:19;147906.56;;;19.93;100.00
6853;BME280;3465;42.144;24.722;2023-05-25T05:58:45;147924.25;;;20.01;100.00
6853;BME280;3465;42.144;24.722;2023-05-25T06:01:12;148016.47;;;20.37;100.00
6853;BME280;3465;42.144;24.722;2023-05-25T06:03:38;147950.75;;;20.11;100.00
6853;BME280;3465;42.144;24.722;2023-05-25T06:06:04;148094.72;;;20.68;100.00
6853;BME280;3465;42.144;24.722;2023-05-25T06:08:29;148130.13;;;20.82;100.00
6853;BME280;3465;42.144;24.722;2023-05-25T06:10:54;148160.41;;;20.94;99.79
6853;BME280;3465;42.144;24.722;2023-05-25T06:13:20;148175.59;;;21.00;98.67
6853;BME280;3465;42.144;24.722;2023-05-25T06:15:46;148217.31;;;21.17;98.30
6853;BME280;3465;42.144;24.722;2023-05-25T06:18:11;148223.66;;;21.19;97.22
6853;BME280;3465;42.144;24.722;2023-05-25T06:20:37;148228.66;;;21.21;96.98
6853;BME280;3465;42.144;24.722;2023-05-25T06:23:02;148279.22;;;21.42;95.45
6853;BME280;3465;42.144;24.722;2023-05-25T06:25:27;148324.72;;;21.60;95.26
6853;BME280;3465;42.144;24.722;2023-05-25T06:27:53;148395.53;;;21.88;94.49
6853;BME280;3465;42.144;24.722;2023-05-25T06:30:18;148461.28;;;22.14;93.79
6853;BME280;3465;42.144;24.722;2023-05-25T06:32:44;148519.41;;;22.37;93.09
6853;BME280;3465;42.144;24.722;2023-05-25T06:35:09;148571.34;;;22.57;90.45
6853;BME280;3465;42.144;24.722;2023-05-25T06:37:38;148509.34;;;22.33;90.76
6853;BME280;3465;42.144;24.722;2023-05-25T06:40:04;148668.75;;;22.96;87.37
6853;BME280;3465;42.144;24.722;2023-05-25T06:42:29;148726.94;;;23.19;86.74
6853;BME280;3465;42.144;24.722;2023-05-25T06:44:55;148771.28;;;23.37;85.76
6853;BME280;3465;42.144;24.722;2023-05-25T06:47:20;148800.38;;;23.48;85.45
6853;BME280;3465;42.144;24.722;2023-05-25T06:49:46;148842.16;;;23.65;84.69
6853;BME280;3465;42.144;24.722;2023-05-25T06:52:11;148856.06;;;23.70;84.49
6853;BME280;3465;42.144;24.722;2023-05-25T06:54:36;148870.00;;;23.76;83.52
6853;BME280;3465;42.144;24.722;2023-05-25T06:57:02;148878.88;;;23.79;82.73
6853;BME280;3465;42.144;24.722;2023-05-25T06:59:27;148847.19;;;23.67;81.83
6853;BME280;3465;42.144;24.722;2023-05-25T07:01:53;148928.25;;;23.99;80.72
6853;BME280;3465;42.144;24.722;2023-05-25T07:04:20;148994.13;;;24.25;81.15
6853;BME280;3465;42.144;24.722;2023-05-25T07:06:46;149144.91;;;24.85;78.90
6853;BME280;3465;42.144;24.722;2023-05-25T07:09:12;149374.31;;;25.76;74.40
6853;BME280;3465;42.144;24.722;2023-05-25T07:11:37;149662.34;;;26.90;69.93
6853;BME280;3465;42.144;24.722;2023-05-25T07:14:03;150030.56;;;28.35;62.92
6853;BME280;3465;42.144;24.722;2023-05-25T07:16:28;150199.56;;;29.02;57.14
6853;BME280;3465;42.144;24.722;2023-05-25T07:18:56;150364.94;;;29.67;55.37
6853;BME280;3465;42.144;24.722;2023-05-25T07:21:21;150483.19;;;30.14;53.54
6853;BME280;3465;42.144;24.722;2023-05-25T07:23:46;150559.53;;;30.44;52.53
6853;BME280;3465;42.144;24.722;2023-05-25T07:26:12;150528.97;;;30.32;52.49
6853;BME280;3465;42.144;24.722;2023-05-25T07:28:37;150565.84;;;30.46;51.60
6853;BME280;3465;42.144;24.722;2023-05-25T07:31:03;150579.88;;;30.52;51.18
6853;BME280;3465;42.144;24.722;2023-05-25T07:33:28;150593.84;;;30.57;50.26
6853;BME280;3465;42.144;24.722;2023-05-25T07:35:53;150615.47;;;30.66;50.45
6853;BME280;3465;42.144;24.722;2023-05-25T07:38:19;150803.91;;;31.40;47.53
6853;BME280;3465;42.144;24.722;2023-05-25T07:40:44;150955.47;;;32.00;46.57
6853;BME280;3465;42.144;24.722;2023-05-25T07:43:11;151077.75;;;32.48;44.55
6853;BME280;3465;42.144;24.722;2023-05-25T07:45:37;151057.38;;;32.40;44.61
6853;BME280;3465;42.144;24.722;2023-05-25T07:48:02;151011.47;;;32.22;44.10
6853;BME280;3465;42.144;24.722;2023-05-25T07:50:31;151223.03;;;33.05;42.35
6853;BME280;3465;42.144;24.722;2023-05-25T07:52:56;151330.13;;;33.48;41.96
6853;BME280;3465;42.144;24.722;2023-05-25T07:55:25;151300.75;;;33.36;40.15
6853;BME280;3465;42.144;24.722;2023-05-25T07:57:51;151071.38;;;32.46;44.15
6853;BME280;3465;42.144;24.722;2023-05-25T08:00:17;151186.06;;;32.91;43.27
6853;BME280;3465;42.144;24.722;2023-05-25T08:02:42;151146.53;;;32.75;43.35
6853;BME280;3465;42.144;24.722;2023-05-25T08:05:08;151028.03;;;32.29;42.84
6853;BME280;3465;42.144;24.722;2023-05-25T08:07:34;150803.91;;;31.40;45.03
6853;BME280;3465;42.144;24.722;2023-05-25T08:10:00;150593.84;;;30.57;48.46
6853;BME280;3465;42.144;24.722;2023-05-25T08:12:26;150425.94;;;29.91;50.23
6853;BME280;3465;42.144;24.722;2023-05-25T08:14:51;150261.91;;;29.26;51.70
6853;BME280;3465;42.144;24.722;2023-05-25T08:17:18;150071.28;;;28.51;54.94
6853;BME280;3465;42.144;24.722;2023-05-25T08:19:44;150025.50;;;28.33;56.56
6853;BME280;3465;42.144;24.722;2023-05-25T08:22:09;149951.81;;;28.04;56.05
6853;BME280;3465;42.144;24.722;2023-05-25T08:24:35;149842.59;;;27.61;58.15
6853;BME280;3465;42.144;24.722;2023-05-25T08:27:01;149766.44;;;27.31;59.88
6853;BME280;3465;42.144;24.722;2023-05-25T08:29:26;149831.16;;;27.56;58.93
6853;BME280;3465;42.144;24.722;2023-05-25T08:31:52;149868.00;;;27.71;58.94
6853;BME280;3465;42.144;24.722;2023-05-25T08:34:17;150047.09;;;28.42;57.82
6853;BME280;3465;42.144;24.722;2023-05-25T08:36:43;150160.19;;;28.86;55.14
6853;BME280;3465;42.144;24.722;2023-05-25T08:39:09;150380.16;;;29.73;53.78
6853;BME280;3465;42.144;24.722;2023-05-25T08:41:35;150884.09;;;31.72;49.07
6853;BME280;3465;42.144;24.722;2023-05-25T08:44:01;151267.63;;;33.23;43.21
6853;BME280;3465;42.144;24.722;2023-05-25T08:46:30;151599.25;;;34.53;41.43
6853;BME280;3465;42.144;24.722;2023-05-25T08:49:11;151772.75;;;35.22;39.51
6853;BME280;3465;42.144;24.722;2023-05-25T08:51:40;151612.00;;;34.58;38.74
6853;BME280;3465;42.144;24.722;2023-05-25T08:54:11;151475.47;;;34.05;39.14
6853;BME280;3465;42.144;24.722;2023-05-25T08:56:50;151461.47;;;33.99;39.70
6853;BME280;3465;42.144;24.722;2023-05-25T09:01:55;151808.50;;;35.36;37.63
6853;BME280;3465;42.144;24.722;2023-05-25T09:04:21;152107.38;;;36.53;35.82
6853;BME280;3465;42.144;24.722;2023-05-25T09:06:47;152301.59;;;37.29;35.08
6853;BME280;3465;42.144;24.722;2023-05-25T09:09:13;152020.50;;;36.19;34.42
6853;BME280;3465;42.144;24.722;2023-05-25T09:11:39;151839.16;;;35.48;35.11
6853;BME280;3465;42.144;24.722;2023-05-25T09:14:06;151844.28;;;35.50;36.01
6853;BME280;3465;42.144;24.722;2023-05-25T09:16:32;151619.66;;;34.61;33.60
6853;BME280;3465;42.144;24.722;2023-05-25T09:18:58;151603.06;;;34.55;35.85
6853;BME280;3465;42.144;24.722;2023-05-25T09:21:24;151513.75;;;34.20;35.53
6853;BME280;3465;42.144;24.722;2023-05-25T09:23:50;151675.75;;;34.84;34.35
6853;BME280;3465;42.144;24.722;2023-05-25T09:26:16;151987.28;;;36.06;33.33
6853;BME280;3465;42.144;24.722;2023-05-25T09:28:45;152244.06;;;37.07;33.09
6853;BME280;3465;42.144;24.722;2023-05-25T09:31:11;152097.13;;;36.49;32.33
6853;BME280;3465;42.144;24.722;2023-05-25T09:33:40;152474.16;;;37.97;30.72
6853;BME280;3465;42.144;24.722;2023-05-25T09:36:07;152524.06;;;38.17;29.42
6853;BME280;3465;42.144;24.722;2023-05-25T09:38:33;152261.97;;;37.14;29.92
6853;BME280;3465;42.144;24.722;2023-05-25T09:40:58;152513.81;;;38.13;30.20
6853;BME280;3465;42.144;24.722;2023-05-25T09:43:24;152526.59;;;38.18;29.20
6853;BME280;3465;42.144;24.722;2023-05-25T09:45:53;152866.91;;;39.51;28.30
6853;BME280;3465;42.144;24.722;2023-05-25T09:48:20;152984.66;;;39.98;27.22
6853;BME280;3465;42.144;24.722;2023-05-25T09:50:46;153042.25;;;40.20;26.48
6853;BME280;3465;42.144;24.722;2023-05-25T09:53:11;153055.03;;;40.25;26.44
6853;BME280;3465;42.144;24.722;2023-05-25T09:55:37;153046.06;;;40.22;25.36
6853;BME280;3465;42.144;24.722;2023-05-25T09:58:03;152874.56;;;39.54;26.44
6853;BME280;3465;42.144;24.722;2023-05-25T10:00:29;153002.59;;;40.05;25.75
6853;BME280;3465;42.144;24.722;2023-05-25T10:02:54;153106.25;;;40.45;24.81
6853;BME280;3465;42.144;24.722;2023-05-25T10:05:20;153270.19;;;41.09;23.41
6853;BME280;3465;42.144;24.722;2023-05-25T10:07:46;153404.78;;;41.62;22.59
6853;BME280;3465;42.144;24.722;2023-05-25T10:10:14;153189.53;;;40.78;22.11
6853;BME280;3465;42.144;24.722;2023-05-25T10:12:43;153069.19;;;40.31;24.31
6853;BME280;3465;42.144;24.722;2023-05-25T10:15:12;152623.75;;;38.56;25.49
6853;BME280;3465;42.144;24.722;2023-05-25T10:17:54;152497.16;;;38.06;26.03
6853;BME280;3465;42.144;24.722;2023-05-25T10:20:23;152020.50;;;36.19;29.07
6853;BME280;3465;42.144;24.722;2023-05-25T10:23:04;151765.09;;;35.19;31.25
6853;BME280;3465;42.144;24.722;2023-05-25T10:25:37;151631.13;;;34.66;31.70
6853;BME280;3465;42.144;24.722;2023-05-25T10:28:18;151149.06;;;32.76;33.96
6853;BME280;3465;42.144;24.722;2023-05-25T10:30:46;151219.19;;;33.04;33.69
6853;BME280;3465;42.144;24.722;2023-05-25T10:33:13;151191.19;;;32.93;32.92
6853;BME280;3465;42.144;24.722;2023-05-25T10:35:39;151133.81;;;32.70;32.48
6853;BME280;3465;42.144;24.722;2023-05-25T10:38:07;150958.00;;;32.01;34.11
6853;BME280;3465;42.144;24.722;2023-05-25T10:40:33;150738.97;;;31.15;36.22
6853;BME280;3465;42.144;24.722;2023-05-25T10:42:59;150654.94;;;30.82;37.62
6853;BME280;3465;42.144;24.722;2023-05-25T10:45:25;150625.69;;;30.70;37.66
6853;BME280;3465;42.144;24.722;2023-05-25T10:47:51;150557.00;;;30.43;38.90
6853;BME280;3465;42.144;24.722;2023-05-25T10:50:24;150546.78;;;30.39;39.29
6853;BME280;3465;42.144;24.722;2023-05-25T10:53:20;150364.94;;;29.67;39.24
6853;BME280;3465;42.144;24.722;2023-05-25T10:56:00;150232.66;;;29.15;42.11
6853;BME280;3465;42.144;24.722;2023-05-25T10:58:28;150158.91;;;28.86;41.59
6853;BME280;3465;42.144;24.722;2023-05-25T11:01:10;150136.06;;;28.77;42.83
6853;BME280;3465;42.144;24.722;2023-05-25T11:03:55;150024.19;;;28.33;44.28
6853;BME280;3465;42.144;24.722;2023-05-25T11:06:40;149918.81;;;27.91;47.07
6853;BME280;3465;42.144;24.722;2023-05-25T11:09:24;149873.09;;;27.73;48.67
6853;BME280;3465;42.144;24.722;2023-05-25T11:17:10;149751.19;;;27.25;53.11
6853;BME280;3465;42.144;24.722;2023-05-25T11:19:50;149694.06;;;27.02;54.99
6853;BME280;3465;42.144;24.722;2023-05-25T11:22:31;149607.78;;;26.68;56.76
6853;BME280;3465;42.144;24.722;2023-05-25T11:25:00;149603.97;;;26.66;56.44
6853;BME280;3465;42.144;24.722;2023-05-25T11:27:27;149652.19;;;26.86;56.75
6853;BME280;3465;42.144;24.722;2023-05-25T11:29:54;149619.19;;;26.73;57.46
6853;BME280;3465;42.144;24.722;2023-05-25T11:32:23;149584.91;;;26.59;55.96
6853;BME280;3465;42.144;24.722;2023-05-25T11:34:51;149592.53;;;26.62;55.19
6853;BME280;3465;42.144;24.722;2023-05-25T11:37:19;149563.34;;;26.50;56.11
6853;BME280;3465;42.144;24.722;2023-05-25T11:39:49;149521.47;;;26.34;60.46
6853;BME280;3465;42.144;24.722;2023-05-25T11:42:16;149494.84;;;26.23;65.26
6853;BME280;3465;42.144;24.722;2023-05-25T11:44:41;149427.56;;;25.97;67.48
6853;BME280;3465;42.144;24.722;2023-05-25T11:47:11;149421.25;;;25.94;68.38
6853;BME280;3465;42.144;24.722;2023-05-25T11:49:44;149433.94;;;25.99;67.85
6853;BME280;3465;42.144;24.722;2023-05-25T11:52:14;149441.59;;;26.02;67.09
6853;BME280;3465;42.144;24.722;2023-05-25T11:54:40;149403.47;;;25.87;67.63
6853;BME280;3465;42.144;24.722;2023-05-25T11:57:13;149431.38;;;25.98;67.31
6853;BME280;3465;42.144;24.722;2023-05-25T11:59:39;149515.16;;;26.31;63.03
6853;BME280;3465;42.144;24.722;2023-05-25T12:02:05;149507.53;;;26.28;62.00
6853;BME280;3465;42.144;24.722;2023-05-25T12:04:32;149579.81;;;26.57;62.07
6853;BME280;3465;42.144;24.722;2023-05-25T12:07:05;149597.56;;;26.64;63.14
6853;BME280;3465;42.144;24.722;2023-05-25T12:09:31;149642.06;;;26.82;62.17
6853;BME280;3465;42.144;24.722;2023-05-25T12:11:57;149642.06;;;26.82;59.79
6853;BME280;3465;42.144;24.722;2023-05-25T12:14:23;149597.56;;;26.64;60.36
6853;BME280;3465;42.144;24.722;2023-05-25T12:16:50;149624.28;;;26.75;59.26
6853;BME280;3465;42.144;24.722;2023-05-25T12:19:16;149676.28;;;26.95;58.40
6853;BME280;3465;42.144;24.722;2023-05-25T12:21:42;149765.16;;;27.30;57.79
6853;BME280;3465;42.144;24.722;2023-05-25T12:24:09;149880.69;;;27.76;57.17
6853;BME280;3465;42.144;24.722;2023-05-25T12:26:50;149949.28;;;28.03;55.98
6853;BME280;3465;42.144;24.722;2023-05-25T12:29:20;149982.31;;;28.16;54.22
6853;BME280;3465;42.144;24.722;2023-05-25T12:31:45;150142.38;;;28.79;56.08
6853;BME280;3465;42.144;24.722;2023-05-25T12:34:13;150264.41;;;29.27;56.45
6853;BME280;3465;42.144;24.722;2023-05-25T12:36:40;150411.94;;;29.86;53.91
6853;BME280;3465;42.144;24.722;2023-05-25T12:39:07;150484.41;;;30.14;52.85
6853;BME280;3465;42.144;24.722;2023-05-25T12:41:51;150423.38;;;29.90;51.56
6853;BME280;3465;42.144;24.722;2023-05-25T12:46:46;150443.72;;;29.98;50.94
6853;BME280;3465;42.144;24.722;2023-05-25T12:49:28;150371.25;;;29.70;51.25
6853;BME280;3465;42.144;24.722;2023-05-25T12:51:55;150336.91;;;29.56;50.61
6853;BME280;3465;42.144;24.722;2023-05-25T12:54:35;150200.84;;;29.02;52.89
6853;BME280;3465;42.144;24.722;2023-05-25T12:57:01;150315.28;;;29.48;50.72
6853;BME280;3465;42.144;24.722;2023-05-25T12:59:28;150297.47;;;29.40;52.78
6853;BME280;3465;42.144;24.722;2023-05-25T13:01:54;150291.16;;;29.38;52.56
6853;BME280;3465;42.144;24.722;2023-05-25T13:04:20;150239.03;;;29.17;51.82
6853;BME280;3465;42.144;24.722;2023-05-25T13:06:45;150246.66;;;29.20;50.59
6853;BME280;3465;42.144;24.722;2023-05-25T13:09:10;150157.66;;;28.85;52.17
6853;BME280;3465;42.144;24.722;2023-05-25T13:11:36;150083.97;;;28.56;52.91
6853;BME280;3465;42.144;24.722;2023-05-25T13:14:03;149996.25;;;28.22;55.13